Terminal Aerodrome Forecast
Issued by NWS Caribou, ME

Home | Current Version | Previous Version | Text Only | Print | Product List | Glossary On
Versions: 1 2 3 4 5 6 7 8 9 10 11 12 13 14 15 16 17 18 19 20 21 22 23 24 25 26
322
FTUS41 KCAR 190700 AAA
TAFCAR
TAF AMD
KCAR 190700Z 1907/2006 VRB03KT 6SM -SN SCT015 OVC030
     FM191200 00000KT P6SM BKN045
     FM191400 00000KT P6SM BKN030
     FM200100 19007KT P6SM BKN035
     FM200500 VRB03KT 2SM -SN OVC030=

USA.gov is the U.S. government's official web portal to all federal, state and local government web resources and services.